sensor_id;sensor_type;location;lat;lon;timestamp;P1;durP1;ratioP1;P2;durP2;ratioP2
26325;SDS011;14032;52.510;7.342;2023-06-26T00:01:19;8.98;;;6.57;;
26325;SDS011;14032;52.510;7.342;2023-06-26T00:03:46;8.82;;;6.57;;
26325;SDS011;14032;52.510;7.342;2023-06-26T00:06:11;8.73;;;6.85;;
26325;SDS011;14032;52.510;7.342;2023-06-26T00:08:37;7.78;;;6.47;;
26325;SDS011;14032;52.510;7.342;2023-06-26T00:11:03;8.63;;;6.82;;
26325;SDS011;14032;52.510;7.342;2023-06-26T00:13:28;8.35;;;6.22;;
26325;SDS011;14032;52.510;7.342;2023-06-26T00:15:54;7.95;;;7.05;;
26325;SDS011;14032;52.510;7.342;2023-06-26T00:18:19;11.40;;;6.75;;
26325;SDS011;14032;52.510;7.342;2023-06-26T00:20:45;8.15;;;6.80;;
26325;SDS011;14032;52.510;7.342;2023-06-26T00:23:11;8.10;;;6.43;;
26325;SDS011;14032;52.510;7.342;2023-06-26T00:25:38;7.13;;;6.35;;
26325;SDS011;14032;52.510;7.342;2023-06-26T00:28:03;7.88;;;6.03;;
26325;SDS011;14032;52.510;7.342;2023-06-26T00:30:29;8.18;;;7.07;;
26325;SDS011;14032;52.510;7.342;2023-06-26T00:32:54;8.32;;;6.68;;
26325;SDS011;14032;52.510;7.342;2023-06-26T00:35:20;6.95;;;6.25;;
26325;SDS011;14032;52.510;7.342;2023-06-26T00:37:46;8.07;;;6.45;;
26325;SDS011;14032;52.510;7.342;2023-06-26T00:40:12;9.75;;;6.97;;
26325;SDS011;14032;52.510;7.342;2023-06-26T00:42:37;11.30;;;6.88;;
26325;SDS011;14032;52.510;7.342;2023-06-26T00:45:03;8.32;;;7.05;;
26325;SDS011;14032;52.510;7.342;2023-06-26T00:47:29;7.05;;;6.10;;
26325;SDS011;14032;52.510;7.342;2023-06-26T00:49:54;9.48;;;7.50;;
26325;SDS011;14032;52.510;7.342;2023-06-26T00:52:20;15.48;;;7.18;;
26325;SDS011;14032;52.510;7.342;2023-06-26T00:54:48;10.40;;;7.05;;
26325;SDS011;14032;52.510;7.342;2023-06-26T00:57:16;9.93;;;7.22;;
26325;SDS011;14032;52.510;7.342;2023-06-26T00:59:42;7.80;;;7.00;;
26325;SDS011;14032;52.510;7.342;2023-06-26T01:12:28;8.75;;;7.10;;
26325;SDS011;14032;52.510;7.342;2023-06-26T01:14:53;7.93;;;7.03;;
26325;SDS011;14032;52.510;7.342;2023-06-26T01:17:19;7.90;;;6.63;;
26325;SDS011;14032;52.510;7.342;2023-06-26T01:19:45;9.23;;;7.55;;
26325;SDS011;14032;52.510;7.342;2023-06-26T01:28:03;9.57;;;6.93;;
26325;SDS011;14032;52.510;7.342;2023-06-26T01:30:31;8.18;;;7.10;;
26325;SDS011;14032;52.510;7.342;2023-06-26T01:33:01;12.90;;;7.85;;
26325;SDS011;14032;52.510;7.342;2023-06-26T01:35:27;8.45;;;7.20;;
26325;SDS011;14032;52.510;7.342;2023-06-26T01:37:53;9.23;;;6.97;;
26325;SDS011;14032;52.510;7.342;2023-06-26T01:40:35;9.52;;;7.65;;
26325;SDS011;14032;52.510;7.342;2023-06-26T01:43:01;7.35;;;6.22;;
26325;SDS011;14032;52.510;7.342;2023-06-26T01:45:27;11.35;;;7.80;;
26325;SDS011;14032;52.510;7.342;2023-06-26T01:47:57;9.30;;;7.50;;
26325;SDS011;14032;52.510;7.342;2023-06-26T01:50:26;11.07;;;7.35;;
26325;SDS011;14032;52.510;7.342;2023-06-26T01:53:02;10.20;;;7.55;;
26325;SDS011;14032;52.510;7.342;2023-06-26T01:58:38;11.57;;;8.45;;
26325;SDS011;14032;52.510;7.342;2023-06-26T02:01:08;10.05;;;7.63;;
26325;SDS011;14032;52.510;7.342;2023-06-26T02:03:34;10.07;;;8.73;;
26325;SDS011;14032;52.510;7.342;2023-06-26T02:05:59;16.85;;;7.82;;
26325;SDS011;14032;52.510;7.342;2023-06-26T02:08:25;11.35;;;7.65;;
26325;SDS011;14032;52.510;7.342;2023-06-26T02:10:50;10.27;;;8.18;;
26325;SDS011;14032;52.510;7.342;2023-06-26T02:13:16;8.85;;;7.70;;
26325;SDS011;14032;52.510;7.342;2023-06-26T02:15:42;7.68;;;6.88;;
26325;SDS011;14032;52.510;7.342;2023-06-26T02:18:07;8.98;;;7.25;;
26325;SDS011;14032;52.510;7.342;2023-06-26T02:20:33;11.13;;;9.00;;
26325;SDS011;14032;52.510;7.342;2023-06-26T02:22:58;10.88;;;7.28;;
26325;SDS011;14032;52.510;7.342;2023-06-26T02:25:24;9.18;;;7.72;;
26325;SDS011;14032;52.510;7.342;2023-06-26T02:27:49;11.63;;;8.13;;
26325;SDS011;14032;52.510;7.342;2023-06-26T02:30:15;9.00;;;7.65;;
26325;SDS011;14032;52.510;7.342;2023-06-26T02:32:40;9.57;;;7.75;;
26325;SDS011;14032;52.510;7.342;2023-06-26T02:35:06;8.73;;;7.50;;
26325;SDS011;14032;52.510;7.342;2023-06-26T02:37:32;8.35;;;7.30;;
26325;SDS011;14032;52.510;7.342;2023-06-26T02:39:58;8.27;;;7.32;;
26325;SDS011;14032;52.510;7.342;2023-06-26T02:42:23;9.85;;;8.65;;
26325;SDS011;14032;52.510;7.342;2023-06-26T02:44:49;9.90;;;7.90;;
26325;SDS011;14032;52.510;7.342;2023-06-26T02:47:14;9.10;;;7.70;;
26325;SDS011;14032;52.510;7.342;2023-06-26T02:49:40;9.32;;;7.55;;
26325;SDS011;14032;52.510;7.342;2023-06-26T02:52:05;11.00;;;8.05;;
26325;SDS011;14032;52.510;7.342;2023-06-26T02:54:31;13.00;;;9.15;;
26325;SDS011;14032;52.510;7.342;2023-06-26T02:56:57;11.15;;;9.45;;
26325;SDS011;14032;52.510;7.342;2023-06-26T02:59:24;9.85;;;8.05;;
26325;SDS011;14032;52.510;7.342;2023-06-26T03:01:50;10.00;;;8.70;;
26325;SDS011;14032;52.510;7.342;2023-06-26T03:04:15;10.70;;;9.38;;
26325;SDS011;14032;52.510;7.342;2023-06-26T03:06:42;13.23;;;8.98;;
26325;SDS011;14032;52.510;7.342;2023-06-26T03:09:08;10.65;;;8.80;;
26325;SDS011;14032;52.510;7.342;2023-06-26T03:11:34;14.25;;;9.35;;
26325;SDS011;14032;52.510;7.342;2023-06-26T03:13:59;12.13;;;9.68;;
26325;SDS011;14032;52.510;7.342;2023-06-26T03:16:25;14.23;;;8.95;;
26325;SDS011;14032;52.510;7.342;2023-06-26T03:18:50;11.82;;;8.82;;
26325;SDS011;14032;52.510;7.342;2023-06-26T03:21:16;11.40;;;9.30;;
26325;SDS011;14032;52.510;7.342;2023-06-26T03:23:42;11.88;;;8.57;;
26325;SDS011;14032;52.510;7.342;2023-06-26T03:26:08;14.05;;;10.18;;
26325;SDS011;14032;52.510;7.342;2023-06-26T03:28:33;12.85;;;10.13;;
26325;SDS011;14032;52.510;7.342;2023-06-26T03:30:59;10.68;;;9.20;;
26325;SDS011;14032;52.510;7.342;2023-06-26T03:33:24;11.32;;;8.60;;
26325;SDS011;14032;52.510;7.342;2023-06-26T03:35:50;11.13;;;9.07;;
26325;SDS011;14032;52.510;7.342;2023-06-26T03:38:16;11.82;;;10.48;;
26325;SDS011;14032;52.510;7.342;2023-06-26T03:40:41;10.85;;;8.77;;
26325;SDS011;14032;52.510;7.342;2023-06-26T03:43:07;11.35;;;10.15;;
26325;SDS011;14032;52.510;7.342;2023-06-26T03:45:32;14.40;;;10.75;;
26325;SDS011;14032;52.510;7.342;2023-06-26T03:47:58;10.65;;;9.55;;
26325;SDS011;14032;52.510;7.342;2023-06-26T03:50:24;11.15;;;9.35;;
26325;SDS011;14032;52.510;7.342;2023-06-26T03:52:49;13.30;;;10.38;;
26325;SDS011;14032;52.510;7.342;2023-06-26T03:55:16;11.57;;;9.98;;
26325;SDS011;14032;52.510;7.342;2023-06-26T03:57:42;15.23;;;10.23;;
26325;SDS011;14032;52.510;7.342;2023-06-26T04:00:08;11.35;;;9.57;;
26325;SDS011;14032;52.510;7.342;2023-06-26T04:02:34;17.13;;;10.60;;
26325;SDS011;14032;52.510;7.342;2023-06-26T04:05:00;12.40;;;9.80;;
26325;SDS011;14032;52.510;7.342;2023-06-26T04:07:26;13.27;;;10.25;;
26325;SDS011;14032;52.510;7.342;2023-06-26T04:09:52;12.43;;;9.90;;
26325;SDS011;14032;52.510;7.342;2023-06-26T04:12:17;18.02;;;10.73;;
26325;SDS011;14032;52.510;7.342;2023-06-26T04:14:43;12.50;;;11.13;;
26325;SDS011;14032;52.510;7.342;2023-06-26T04:17:09;13.60;;;10.63;;
26325;SDS011;14032;52.510;7.342;2023-06-26T04:19:35;14.35;;;9.98;;
26325;SDS011;14032;52.510;7.342;2023-06-26T04:22:01;12.95;;;10.50;;
26325;SDS011;14032;52.510;7.342;2023-06-26T04:24:27;13.98;;;9.73;;
26325;SDS011;14032;52.510;7.342;2023-06-26T04:26:53;16.40;;;9.85;;
26325;SDS011;14032;52.510;7.342;2023-06-26T04:29:21;15.43;;;10.18;;
26325;SDS011;14032;52.510;7.342;2023-06-26T04:31:51;16.17;;;9.68;;
26325;SDS011;14032;52.510;7.342;2023-06-26T04:34:18;11.88;;;9.57;;
26325;SDS011;14032;52.510;7.342;2023-06-26T04:36:44;13.05;;;10.38;;
26325;SDS011;14032;52.510;7.342;2023-06-26T04:39:12;15.43;;;9.38;;
26325;SDS011;14032;52.510;7.342;2023-06-26T04:41:39;11.88;;;9.98;;
26325;SDS011;14032;52.510;7.342;2023-06-26T04:44:05;16.48;;;10.25;;
26325;SDS011;14032;52.510;7.342;2023-06-26T04:46:31;10.43;;;9.15;;
26325;SDS011;14032;52.510;7.342;2023-06-26T04:48:56;12.13;;;9.73;;
26325;SDS011;14032;52.510;7.342;2023-06-26T04:51:23;18.02;;;9.93;;
26325;SDS011;14032;52.510;7.342;2023-06-26T04:53:49;13.95;;;9.93;;
26325;SDS011;14032;52.510;7.342;2023-06-26T04:56:15;16.02;;;9.70;;
26325;SDS011;14032;52.510;7.342;2023-06-26T04:58:40;12.15;;;9.68;;
26325;SDS011;14032;52.510;7.342;2023-06-26T05:01:06;11.80;;;9.38;;
26325;SDS011;14032;52.510;7.342;2023-06-26T05:03:32;11.90;;;9.63;;
26325;SDS011;14032;52.510;7.342;2023-06-26T05:05:57;10.82;;;9.27;;
26325;SDS011;14032;52.510;7.342;2023-06-26T05:08:24;12.50;;;9.38;;
26325;SDS011;14032;52.510;7.342;2023-06-26T05:10:51;11.43;;;9.13;;
26325;SDS011;14032;52.510;7.342;2023-06-26T05:13:18;12.32;;;9.30;;
26325;SDS011;14032;52.510;7.342;2023-06-26T05:15:45;13.23;;;9.95;;
26325;SDS011;14032;52.510;7.342;2023-06-26T05:18:11;11.02;;;9.65;;
26325;SDS011;14032;52.510;7.342;2023-06-26T05:20:37;13.05;;;9.32;;
26325;SDS011;14032;52.510;7.342;2023-06-26T05:23:03;12.80;;;10.13;;
26325;SDS011;14032;52.510;7.342;2023-06-26T05:25:29;10.82;;;9.43;;
26325;SDS011;14032;52.510;7.342;2023-06-26T05:27:56;12.13;;;10.02;;
26325;SDS011;14032;52.510;7.342;2023-06-26T05:30:23;11.77;;;9.27;;
26325;SDS011;14032;52.510;7.342;2023-06-26T05:32:52;14.38;;;9.50;;
26325;SDS011;14032;52.510;7.342;2023-06-26T05:35:21;14.38;;;10.40;;
26325;SDS011;14032;52.510;7.342;2023-06-26T05:37:48;14.10;;;9.32;;
26325;SDS011;14032;52.510;7.342;2023-06-26T05:40:16;17.02;;;10.13;;
26325;SDS011;14032;52.510;7.342;2023-06-26T05:42:42;13.98;;;10.15;;
26325;SDS011;14032;52.510;7.342;2023-06-26T05:45:09;12.18;;;9.35;;
26325;SDS011;14032;52.510;7.342;2023-06-26T05:47:35;12.32;;;9.70;;
26325;SDS011;14032;52.510;7.342;2023-06-26T05:50:01;15.20;;;10.15;;
26325;SDS011;14032;52.510;7.342;2023-06-26T05:52:27;13.93;;;10.07;;
26325;SDS011;14032;52.510;7.342;2023-06-26T05:54:53;13.27;;;10.23;;
26325;SDS011;14032;52.510;7.342;2023-06-26T05:57:19;18.17;;;9.73;;
26325;SDS011;14032;52.510;7.342;2023-06-26T05:59:46;14.48;;;9.80;;
26325;SDS011;14032;52.510;7.342;2023-06-26T06:02:15;13.20;;;8.20;;
26325;SDS011;14032;52.510;7.342;2023-06-26T06:04:43;11.48;;;8.27;;
26325;SDS011;14032;52.510;7.342;2023-06-26T06:07:09;11.80;;;8.45;;
26325;SDS011;14032;52.510;7.342;2023-06-26T06:09:34;10.40;;;7.85;;
26325;SDS011;14032;52.510;7.342;2023-06-26T06:12:00;12.13;;;8.55;;
26325;SDS011;14032;52.510;7.342;2023-06-26T06:14:26;24.38;;;7.70;;
26325;SDS011;14032;52.510;7.342;2023-06-26T06:16:53;15.55;;;8.93;;
26325;SDS011;14032;52.510;7.342;2023-06-26T06:19:18;15.52;;;8.88;;
26325;SDS011;14032;52.510;7.342;2023-06-26T06:21:44;16.58;;;8.63;;
26325;SDS011;14032;52.510;7.342;2023-06-26T06:24:10;13.52;;;8.98;;
26325;SDS011;14032;52.510;7.342;2023-06-26T06:26:35;14.52;;;8.52;;
26325;SDS011;14032;52.510;7.342;2023-06-26T06:29:01;12.02;;;8.35;;
26325;SDS011;14032;52.510;7.342;2023-06-26T06:31:26;14.57;;;7.90;;
26325;SDS011;14032;52.510;7.342;2023-06-26T06:33:55;12.65;;;7.20;;
26325;SDS011;14032;52.510;7.342;2023-06-26T06:36:20;11.43;;;7.45;;
26325;SDS011;14032;52.510;7.342;2023-06-26T06:38:46;11.43;;;6.80;;
26325;SDS011;14032;52.510;7.342;2023-06-26T06:41:11;14.60;;;7.25;;
26325;SDS011;14032;52.510;7.342;2023-06-26T06:43:37;14.68;;;7.28;;
26325;SDS011;14032;52.510;7.342;2023-06-26T06:46:03;13.32;;;6.53;;
26325;SDS011;14032;52.510;7.342;2023-06-26T06:48:29;14.50;;;6.07;;
26325;SDS011;14032;52.510;7.342;2023-06-26T06:50:55;15.70;;;7.07;;
26325;SDS011;14032;52.510;7.342;2023-06-26T06:53:21;17.08;;;7.38;;
26325;SDS011;14032;52.510;7.342;2023-06-26T06:55:46;14.50;;;7.40;;
26325;SDS011;14032;52.510;7.342;2023-06-26T06:58:12;10.90;;;6.60;;
26325;SDS011;14032;52.510;7.342;2023-06-26T07:00:38;13.27;;;7.07;;
26325;SDS011;14032;52.510;7.342;2023-06-26T07:03:03;18.77;;;8.02;;
26325;SDS011;14032;52.510;7.342;2023-06-26T07:05:29;15.50;;;6.95;;
26325;SDS011;14032;52.510;7.342;2023-06-26T07:07:55;16.05;;;7.68;;
26325;SDS011;14032;52.510;7.342;2023-06-26T07:10:20;15.13;;;7.35;;
26325;SDS011;14032;52.510;7.342;2023-06-26T07:12:46;14.73;;;7.10;;
26325;SDS011;14032;52.510;7.342;2023-06-26T07:15:12;16.70;;;7.07;;
26325;SDS011;14032;52.510;7.342;2023-06-26T07:17:38;13.82;;;7.30;;
26325;SDS011;14032;52.510;7.342;2023-06-26T07:20:04;15.32;;;7.43;;
26325;SDS011;14032;52.510;7.342;2023-06-26T07:22:35;15.57;;;7.13;;
26325;SDS011;14032;52.510;7.342;2023-06-26T07:25:02;14.60;;;6.70;;
26325;SDS011;14032;52.510;7.342;2023-06-26T07:27:29;18.77;;;7.53;;
26325;SDS011;14032;52.510;7.342;2023-06-26T07:29:54;15.15;;;7.05;;
26325;SDS011;14032;52.510;7.342;2023-06-26T07:32:20;12.32;;;6.13;;
26325;SDS011;14032;52.510;7.342;2023-06-26T07:34:45;15.18;;;6.40;;
26325;SDS011;14032;52.510;7.342;2023-06-26T07:37:11;8.95;;;5.50;;
26325;SDS011;14032;52.510;7.342;2023-06-26T07:39:36;12.13;;;6.32;;
26325;SDS011;14032;52.510;7.342;2023-06-26T07:42:03;12.63;;;6.38;;
26325;SDS011;14032;52.510;7.342;2023-06-26T07:44:29;15.80;;;5.90;;
26325;SDS011;14032;52.510;7.342;2023-06-26T07:46:54;12.18;;;5.70;;
26325;SDS011;14032;52.510;7.342;2023-06-26T07:49:20;12.38;;;6.25;;
26325;SDS011;14032;52.510;7.342;2023-06-26T07:51:46;10.20;;;5.10;;
26325;SDS011;14032;52.510;7.342;2023-06-26T07:54:11;11.52;;;4.82;;
26325;SDS011;14032;52.510;7.342;2023-06-26T07:59:33;11.25;;;4.75;;
26325;SDS011;14032;52.510;7.342;2023-06-26T08:02:00;11.40;;;4.72;;
26325;SDS011;14032;52.510;7.342;2023-06-26T08:04:26;12.57;;;4.70;;
26325;SDS011;14032;52.510;7.342;2023-06-26T08:06:55;9.57;;;4.13;;
26325;SDS011;14032;52.510;7.342;2023-06-26T08:09:23;6.25;;;3.35;;
26325;SDS011;14032;52.510;7.342;2023-06-26T08:11:50;4.32;;;2.97;;
26325;SDS011;14032;52.510;7.342;2023-06-26T08:14:16;7.88;;;3.50;;
26325;SDS011;14032;52.510;7.342;2023-06-26T08:16:42;7.68;;;3.50;;
26325;SDS011;14032;52.510;7.342;2023-06-26T08:19:09;6.90;;;2.50;;
26325;SDS011;14032;52.510;7.342;2023-06-26T08:21:35;7.43;;;2.80;;
26325;SDS011;14032;52.510;7.342;2023-06-26T08:24:01;5.60;;;2.08;;
26325;SDS011;14032;52.510;7.342;2023-06-26T08:26:27;4.07;;;1.92;;
26325;SDS011;14032;52.510;7.342;2023-06-26T08:28:53;3.00;;;1.80;;
26325;SDS011;14032;52.510;7.342;2023-06-26T08:31:19;3.90;;;1.80;;
26325;SDS011;14032;52.510;7.342;2023-06-26T08:33:44;3.53;;;1.67;;
26325;SDS011;14032;52.510;7.342;2023-06-26T08:36:10;4.65;;;1.92;;
26325;SDS011;14032;52.510;7.342;2023-06-26T08:38:35;4.82;;;1.80;;
26325;SDS011;14032;52.510;7.342;2023-06-26T08:41:01;7.25;;;1.88;;
26325;SDS011;14032;52.510;7.342;2023-06-26T08:43:27;7.95;;;2.13;;
26325;SDS011;14032;52.510;7.342;2023-06-26T08:46:13;4.57;;;1.65;;
26325;SDS011;14032;52.510;7.342;2023-06-26T08:48:39;5.03;;;2.13;;
26325;SDS011;14032;52.510;7.342;2023-06-26T08:51:11;7.38;;;2.08;;
26325;SDS011;14032;52.510;7.342;2023-06-26T08:54:00;4.53;;;1.98;;
26325;SDS011;14032;52.510;7.342;2023-06-26T08:56:37;3.70;;;1.73;;
26325;SDS011;14032;52.510;7.342;2023-06-26T08:59:08;7.30;;;1.85;;
26325;SDS011;14032;52.510;7.342;2023-06-26T09:01:36;5.40;;;2.20;;
26325;SDS011;14032;52.510;7.342;2023-06-26T09:04:03;5.82;;;1.92;;
26325;SDS011;14032;52.510;7.342;2023-06-26T09:06:28;5.65;;;1.90;;
26325;SDS011;14032;52.510;7.342;2023-06-26T09:08:54;7.53;;;2.40;;
26325;SDS011;14032;52.510;7.342;2023-06-26T09:11:20;6.20;;;1.92;;
26325;SDS011;14032;52.510;7.342;2023-06-26T09:13:46;4.45;;;1.92;;
26325;SDS011;14032;52.510;7.342;2023-06-26T09:16:12;8.32;;;1.60;;
26325;SDS011;14032;52.510;7.342;2023-06-26T09:18:39;4.90;;;1.90;;
26325;SDS011;14032;52.510;7.342;2023-06-26T09:21:07;5.32;;;2.00;;
26325;SDS011;14032;52.510;7.342;2023-06-26T09:23:33;6.13;;;2.42;;
26325;SDS011;14032;52.510;7.342;2023-06-26T09:25:59;5.85;;;1.80;;
26325;SDS011;14032;52.510;7.342;2023-06-26T09:28:31;7.70;;;1.90;;
26325;SDS011;14032;52.510;7.342;2023-06-26T09:31:02;5.30;;;2.08;;
26325;SDS011;14032;52.510;7.342;2023-06-26T09:33:33;10.23;;;2.40;;
26325;SDS011;14032;52.510;7.342;2023-06-26T09:36:01;3.97;;;1.77;;
26325;SDS011;14032;52.510;7.342;2023-06-26T09:38:26;6.88;;;1.90;;
26325;SDS011;14032;52.510;7.342;2023-06-26T09:40:53;4.72;;;1.92;;
26325;SDS011;14032;52.510;7.342;2023-06-26T09:45:53;5.70;;;2.28;;
26325;SDS011;14032;52.510;7.342;2023-06-26T09:48:20;3.60;;;1.70;;
26325;SDS011;14032;52.510;7.342;2023-06-26T09:50:46;6.18;;;1.95;;
26325;SDS011;14032;52.510;7.342;2023-06-26T09:53:13;3.35;;;1.80;;
26325;SDS011;14032;52.510;7.342;2023-06-26T09:55:39;5.57;;;1.90;;
26325;SDS011;14032;52.510;7.342;2023-06-26T09:58:11;4.25;;;1.88;;
26325;SDS011;14032;52.510;7.342;2023-06-26T10:00:40;7.80;;;2.05;;
26325;SDS011;14032;52.510;7.342;2023-06-26T10:03:07;6.03;;;2.00;;
26325;SDS011;14032;52.510;7.342;2023-06-26T10:05:33;6.28;;;2.30;;
26325;SDS011;14032;52.510;7.342;2023-06-26T10:07:58;5.40;;;1.92;;
26325;SDS011;14032;52.510;7.342;2023-06-26T10:10:26;3.80;;;1.75;;
26325;SDS011;14032;52.510;7.342;2023-06-26T10:12:54;5.28;;;2.05;;
26325;SDS011;14032;52.510;7.342;2023-06-26T10:15:26;3.00;;;1.58;;
26325;SDS011;14032;52.510;7.342;2023-06-26T10:17:54;4.22;;;1.90;;
26325;SDS011;14032;52.510;7.342;2023-06-26T10:20:22;3.95;;;1.70;;
26325;SDS011;14032;52.510;7.342;2023-06-26T10:22:49;3.30;;;1.50;;
26325;SDS011;14032;52.510;7.342;2023-06-26T10:25:19;5.18;;;1.63;;
26325;SDS011;14032;52.510;7.342;2023-06-26T10:27:56;4.50;;;1.65;;
26325;SDS011;14032;52.510;7.342;2023-06-26T10:30:26;2.85;;;1.40;;
26325;SDS011;14032;52.510;7.342;2023-06-26T10:32:58;5.82;;;1.63;;
26325;SDS011;14032;52.510;7.342;2023-06-26T10:35:25;4.85;;;1.55;;
26325;SDS011;14032;52.510;7.342;2023-06-26T10:37:52;3.63;;;1.55;;
26325;SDS011;14032;52.510;7.342;2023-06-26T10:40:25;3.03;;;1.38;;
26325;SDS011;14032;52.510;7.342;2023-06-26T10:42:51;6.22;;;1.85;;
26325;SDS011;14032;52.510;7.342;2023-06-26T10:45:32;4.00;;;1.33;;
26325;SDS011;14032;52.510;7.342;2023-06-26T10:47:58;3.22;;;1.60;;
26325;SDS011;14032;52.510;7.342;2023-06-26T10:50:25;3.88;;;1.50;;
26325;SDS011;14032;52.510;7.342;2023-06-26T10:55:34;3.45;;;1.77;;
26325;SDS011;14032;52.510;7.342;2023-06-26T10:58:00;4.50;;;1.73;;
26325;SDS011;14032;52.510;7.342;2023-06-26T11:00:27;3.65;;;1.70;;
26325;SDS011;14032;52.510;7.342;2023-06-26T11:02:53;5.03;;;1.65;;
26325;SDS011;14032;52.510;7.342;2023-06-26T11:11:06;4.18;;;1.75;;
26325;SDS011;14032;52.510;7.342;2023-06-26T11:13:32;7.13;;;2.42;;
26325;SDS011;14032;52.510;7.342;2023-06-26T11:16:00;4.60;;;1.65;;
26325;SDS011;14032;52.510;7.342;2023-06-26T11:18:27;5.75;;;2.40;;
26325;SDS011;14032;52.510;7.342;2023-06-26T11:20:53;5.60;;;2.17;;
26325;SDS011;14032;52.510;7.342;2023-06-26T11:23:19;6.10;;;2.08;;
26325;SDS011;14032;52.510;7.342;2023-06-26T11:25:49;4.47;;;1.83;;
26325;SDS011;14032;52.510;7.342;2023-06-26T11:28:15;5.82;;;1.98;;
26325;SDS011;14032;52.510;7.342;2023-06-26T11:41:28;6.25;;;2.10;;
26325;SDS011;14032;52.510;7.342;2023-06-26T11:43:55;4.05;;;1.88;;
26325;SDS011;14032;52.510;7.342;2023-06-26T11:46:25;7.68;;;1.90;;
26325;SDS011;14032;52.510;7.342;2023-06-26T11:48:51;9.02;;;1.90;;
26325;SDS011;14032;52.510;7.342;2023-06-26T11:51:17;6.38;;;2.22;;
26325;SDS011;14032;52.510;7.342;2023-06-26T12:01:44;4.07;;;2.00;;
26325;SDS011;14032;52.510;7.342;2023-06-26T12:04:11;5.03;;;1.65;;
26325;SDS011;14032;52.510;7.342;2023-06-26T12:06:38;6.20;;;1.90;;
26325;SDS011;14032;52.510;7.342;2023-06-26T12:09:07;5.32;;;1.42;;
26325;SDS011;14032;52.510;7.342;2023-06-26T12:11:34;3.78;;;1.83;;
26325;SDS011;14032;52.510;7.342;2023-06-26T12:14:01;6.70;;;1.65;;
26325;SDS011;14032;52.510;7.342;2023-06-26T12:16:28;5.35;;;1.45;;
26325;SDS011;14032;52.510;7.342;2023-06-26T12:19:05;6.13;;;1.35;;
26325;SDS011;14032;52.510;7.342;2023-06-26T12:24:07;7.03;;;1.67;;
26325;SDS011;14032;52.510;7.342;2023-06-26T12:26:34;10.68;;;1.48;;
26325;SDS011;14032;52.510;7.342;2023-06-26T12:29:06;8.23;;;1.20;;
26325;SDS011;14032;52.510;7.342;2023-06-26T12:31:33;4.68;;;1.20;;
26325;SDS011;14032;52.510;7.342;2023-06-26T12:33:59;3.47;;;1.40;;
26325;SDS011;14032;52.510;7.342;2023-06-26T12:36:26;4.70;;;1.33;;
26325;SDS011;14032;52.510;7.342;2023-06-26T12:38:52;3.70;;;1.40;;
26325;SDS011;14032;52.510;7.342;2023-06-26T12:41:19;5.75;;;1.25;;
26325;SDS011;14032;52.510;7.342;2023-06-26T12:43:48;4.75;;;1.52;;
26325;SDS011;14032;52.510;7.342;2023-06-26T12:46:13;2.42;;;1.33;;
26325;SDS011;14032;52.510;7.342;2023-06-26T12:48:42;4.18;;;1.42;;
26325;SDS011;14032;52.510;7.342;2023-06-26T12:51:12;4.78;;;1.45;;
26325;SDS011;14032;52.510;7.342;2023-06-26T12:53:39;4.93;;;1.63;;
26325;SDS011;14032;52.510;7.342;2023-06-26T12:56:06;3.05;;;1.20;;
26325;SDS011;14032;52.510;7.342;2023-06-26T12:58:36;3.60;;;1.08;;
26325;SDS011;14032;52.510;7.342;2023-06-26T13:01:03;2.22;;;1.20;;
26325;SDS011;14032;52.510;7.342;2023-06-26T13:03:30;3.60;;;1.20;;
26325;SDS011;14032;52.510;7.342;2023-06-26T13:05:56;8.23;;;1.40;;
26325;SDS011;14032;52.510;7.342;2023-06-26T13:08:22;3.42;;;1.15;;
26325;SDS011;14032;52.510;7.342;2023-06-26T13:10:47;4.95;;;1.27;;
26325;SDS011;14032;52.510;7.342;2023-06-26T13:31:19;3.55;;;1.00;;
26325;SDS011;14032;52.510;7.342;2023-06-26T13:33:45;6.85;;;1.05;;
26325;SDS011;14032;52.510;7.342;2023-06-26T13:36:13;3.15;;;0.82;;
26325;SDS011;14032;52.510;7.342;2023-06-26T13:38:39;6.70;;;1.20;;
26325;SDS011;14032;52.510;7.342;2023-06-26T13:41:05;3.08;;;0.60;;
26325;SDS011;14032;52.510;7.342;2023-06-26T13:43:30;2.08;;;0.80;;
26325;SDS011;14032;52.510;7.342;2023-06-26T13:45:56;3.97;;;1.35;;
26325;SDS011;14032;52.510;7.342;2023-06-26T13:48:22;4.95;;;0.98;;
26325;SDS011;14032;52.510;7.342;2023-06-26T13:50:51;3.03;;;0.98;;
26325;SDS011;14032;52.510;7.342;2023-06-26T13:53:17;7.15;;;1.55;;
26325;SDS011;14032;52.510;7.342;2023-06-26T13:55:42;2.92;;;1.15;;
26325;SDS011;14032;52.510;7.342;2023-06-26T13:58:08;6.38;;;1.35;;
26325;SDS011;14032;52.510;7.342;2023-06-26T14:00:35;6.55;;;0.95;;
26325;SDS011;14032;52.510;7.342;2023-06-26T14:03:01;2.72;;;0.90;;
26325;SDS011;14032;52.510;7.342;2023-06-26T14:05:28;6.13;;;1.30;;
26325;SDS011;14032;52.510;7.342;2023-06-26T14:07:54;5.00;;;1.17;;
26325;SDS011;14032;52.510;7.342;2023-06-26T14:10:20;9.38;;;1.90;;
26325;SDS011;14032;52.510;7.342;2023-06-26T14:12:46;10.32;;;1.88;;
26325;SDS011;14032;52.510;7.342;2023-06-26T14:15:12;5.50;;;1.50;;
26325;SDS011;14032;52.510;7.342;2023-06-26T14:17:38;3.67;;;1.00;;
26325;SDS011;14032;52.510;7.342;2023-06-26T14:20:05;4.13;;;1.30;;
26325;SDS011;14032;52.510;7.342;2023-06-26T14:22:35;5.63;;;1.30;;
26325;SDS011;14032;52.510;7.342;2023-06-26T14:25:00;7.22;;;1.20;;
26325;SDS011;14032;52.510;7.342;2023-06-26T14:27:26;6.25;;;1.10;;
26325;SDS011;14032;52.510;7.342;2023-06-26T14:29:52;8.48;;;1.30;;
26325;SDS011;14032;52.510;7.342;2023-06-26T14:32:17;2.95;;;1.20;;
26325;SDS011;14032;52.510;7.342;2023-06-26T14:34:43;7.38;;;1.10;;
26325;SDS011;14032;52.510;7.342;2023-06-26T14:37:08;6.47;;;1.10;;
26325;SDS011;14032;52.510;7.342;2023-06-26T14:39:34;7.45;;;1.70;;
26325;SDS011;14032;52.510;7.342;2023-06-26T14:42:00;4.40;;;1.52;;
26325;SDS011;14032;52.510;7.342;2023-06-26T14:44:25;8.60;;;1.50;;
26325;SDS011;14032;52.510;7.342;2023-06-26T14:46:51;7.28;;;1.50;;
26325;SDS011;14032;52.510;7.342;2023-06-26T14:49:16;5.32;;;1.27;;
26325;SDS011;14032;52.510;7.342;2023-06-26T14:51:44;7.78;;;1.55;;
26325;SDS011;14032;52.510;7.342;2023-06-26T14:54:09;2.63;;;0.85;;
26325;SDS011;14032;52.510;7.342;2023-06-26T14:56:35;6.43;;;0.95;;
26325;SDS011;14032;52.510;7.342;2023-06-26T14:59:00;5.90;;;1.45;;
26325;SDS011;14032;52.510;7.342;2023-06-26T15:01:26;4.72;;;0.90;;
26325;SDS011;14032;52.510;7.342;2023-06-26T15:03:52;4.55;;;0.93;;
26325;SDS011;14032;52.510;7.342;2023-06-26T15:06:17;2.60;;;1.30;;
26325;SDS011;14032;52.510;7.342;2023-06-26T15:08:43;3.95;;;0.90;;
26325;SDS011;14032;52.510;7.342;2023-06-26T15:11:09;2.90;;;0.98;;
26325;SDS011;14032;52.510;7.342;2023-06-26T15:13:34;5.95;;;1.13;;
26325;SDS011;14032;52.510;7.342;2023-06-26T15:16:00;6.95;;;0.95;;
26325;SDS011;14032;52.510;7.342;2023-06-26T15:18:25;6.68;;;1.30;;
26325;SDS011;14032;52.510;7.342;2023-06-26T15:20:51;5.60;;;1.30;;
26325;SDS011;14032;52.510;7.342;2023-06-26T15:23:16;5.68;;;1.63;;
26325;SDS011;14032;52.510;7.342;2023-06-26T15:25:42;10.85;;;1.33;;
26325;SDS011;14032;52.510;7.342;2023-06-26T15:28:07;4.80;;;1.00;;
26325;SDS011;14032;52.510;7.342;2023-06-26T15:30:33;4.60;;;1.17;;
26325;SDS011;14032;52.510;7.342;2023-06-26T15:32:59;4.95;;;1.42;;
26325;SDS011;14032;52.510;7.342;2023-06-26T15:35:24;4.68;;;1.10;;
26325;SDS011;14032;52.510;7.342;2023-06-26T15:37:50;8.57;;;1.50;;
26325;SDS011;14032;52.510;7.342;2023-06-26T15:40:16;5.18;;;0.82;;
26325;SDS011;14032;52.510;7.342;2023-06-26T15:42:45;5.45;;;1.02;;
26325;SDS011;14032;52.510;7.342;2023-06-26T15:45:14;3.38;;;0.90;;
26325;SDS011;14032;52.510;7.342;2023-06-26T15:47:42;5.40;;;1.13;;
26325;SDS011;14032;52.510;7.342;2023-06-26T15:50:08;5.13;;;1.00;;